createdAt,value
2017-04-06T00:00:01.577Z,72.5
2017-04-06T00:00:05.884Z,72.12
2017-04-06T00:00:10.197Z,72.5
2017-04-06T00:00:14.619Z,72.31
2017-04-06T00:00:19.076Z,72.6
2017-04-06T00:00:23.500Z,72.41
2017-04-06T00:00:27.948Z,72.5
2017-04-06T00:00:32.018Z,72.69
2017-04-06T00:00:36.325Z,72.5
2017-04-06T00:00:40.744Z,72.69
2017-04-06T00:00:45.167Z,72.6
2017-04-06T00:00:49.481Z,72.5
2017-04-06T00:00:53.582Z,72.6
2017-04-06T00:00:58.008Z,72.6
2017-04-06T00:01:02.434Z,72.6
2017-04-06T00:01:06.864Z,72.6
2017-04-06T00:01:11.294Z,72.6
2017-04-06T00:01:15.717Z,72.6
2017-04-06T00:01:20.146Z,72.6
2017-04-06T00:01:24.464Z,72.69
2017-04-06T00:01:28.656Z,72.69
2017-04-06T00:01:32.846Z,72.69
2017-04-06T00:01:37.277Z,72.5
2017-04-06T00:01:41.709Z,72.5
2017-04-06T00:01:46.138Z,72.69
2017-04-06T00:01:50.563Z,72.69
2017-04-06T00:01:54.990Z,72.6
2017-04-06T00:01:59.177Z,72.6
2017-04-06T00:02:03.605Z,72.6
2017-04-06T00:02:08.026Z,72.6
2017-04-06T00:02:12.452Z,72.5
2017-04-06T00:02:16.875Z,72.69
2017-04-06T00:02:21.066Z,72.6
2017-04-06T00:02:25.490Z,72.6
2017-04-06T00:02:29.954Z,72.88
2017-04-06T00:02:34.373Z,72.69
2017-04-06T00:02:39.027Z,72.69
2017-04-06T00:02:43.454Z,72.41
2017-04-06T00:02:47.768Z,72.78
2017-04-06T00:02:52.192Z,72.6
2017-04-06T00:02:56.626Z,72.6
2017-04-06T00:03:01.053Z,72.6
2017-04-06T00:03:05.726Z,72.6
2017-04-06T00:03:10.152Z,72.6
2017-04-06T00:03:14.338Z,72.6
2017-04-06T00:03:18.766Z,72.5
2017-04-06T00:03:23.187Z,72.6
2017-04-06T00:03:27.606Z,72.5
2017-04-06T00:03:32.032Z,72.69
2017-04-06T00:03:36.341Z,72.5
2017-04-06T00:03:40.764Z,72.6
2017-04-06T00:03:45.187Z,72.6
2017-04-06T00:03:49.610Z,72.5
2017-04-06T00:03:53.911Z,72.5
2017-04-06T00:03:58.343Z,72.69
2017-04-06T00:04:02.776Z,72.5
2017-04-06T00:04:07.081Z,72.69
2017-04-06T00:04:11.269Z,72.5
2017-04-06T00:04:15.689Z,72.6
2017-04-06T00:04:20.112Z,72.6
2017-04-06T00:04:24.533Z,72.6
2017-04-06T00:04:28.959Z,72.5
2017-04-06T00:04:33.389Z,72.6
2017-04-06T00:04:37.817Z,72.5
2017-04-06T00:04:42.123Z,72.5
2017-04-06T00:04:46.557Z,72.5
2017-04-06T00:04:51.013Z,72.69
2017-04-06T00:04:55.436Z,72.69
2017-04-06T00:04:59.626Z,72.69
2017-04-06T00:05:03.981Z,72.69
2017-04-06T00:05:08.414Z,72.21
2017-04-06T00:05:12.852Z,72.6
2017-04-06T00:05:17.170Z,72.5
2017-04-06T00:05:21.483Z,72.5
2017-04-06T00:05:25.802Z,72.5
2017-04-06T00:05:30.003Z,72.31
2017-04-06T00:05:34.082Z,72.6
2017-04-06T00:05:38.280Z,72.6
2017-04-06T00:05:42.711Z,72.78
2017-04-06T00:05:47.024Z,72.6
2017-04-06T00:05:51.334Z,72.12
2017-04-06T00:05:55.651Z,72.12
2017-04-06T00:05:59.963Z,72.5
2017-04-06T00:06:04.414Z,72.5
2017-04-06T00:06:08.855Z,72.78
2017-04-06T00:06:13.288Z,72.12
2017-04-06T00:06:17.607Z,72.5
2017-04-06T00:06:21.830Z,72.69
2017-04-06T00:06:26.263Z,72.69
2017-04-06T00:06:30.457Z,72.6
2017-04-06T00:06:34.774Z,72.5
2017-04-06T00:06:38.855Z,72.6
2017-04-06T00:06:43.289Z,72.12
2017-04-06T00:06:47.603Z,72.5
2017-04-06T00:06:52.034Z,72.41
2017-04-06T00:06:56.373Z,72.6
2017-04-06T00:07:00.689Z,72.6
2017-04-06T00:07:05.121Z,72.12
2017-04-06T00:07:09.439Z,72.5
2017-04-06T00:07:13.868Z,72.6
2017-04-06T00:07:17.944Z,72.31
2017-04-06T00:07:22.135Z,72.5
2017-04-06T00:07:26.575Z,72.12
2017-04-06T00:07:30.896Z,72.12
2017-04-06T00:07:35.202Z,72.6
2017-04-06T00:07:39.509Z,72.12
2017-04-06T00:07:43.966Z,72.69
2017-04-06T00:07:48.396Z,72.6
2017-04-06T00:07:52.598Z,72.5
2017-04-06T00:07:56.908Z,72.6
2017-04-06T00:08:01.107Z,72.12
2017-04-06T00:08:05.428Z,72.6
2017-04-06T00:08:09.391Z,72.69
2017-04-06T00:08:13.700Z,72.6
2017-04-06T00:08:18.134Z,72.69
2017-04-06T00:08:22.444Z,72.6
2017-04-06T00:08:26.876Z,72.21
2017-04-06T00:08:31.065Z,72.5
2017-04-06T00:08:35.494Z,72.5
2017-04-06T00:08:39.920Z,72.12
2017-04-06T00:08:44.352Z,72.6
2017-04-06T00:08:48.788Z,72.12
2017-04-06T00:08:53.099Z,72.6
2017-04-06T00:08:57.524Z,72.21
2017-04-06T00:09:01.950Z,72.6
2017-04-06T00:09:06.387Z,72.12
2017-04-06T00:09:10.699Z,72.21
2017-04-06T00:09:15.018Z,72.41
2017-04-06T00:09:19.336Z,72.12
2017-04-06T00:09:23.651Z,72.12
2017-04-06T00:09:27.843Z,72.21
2017-04-06T00:09:32.154Z,72.41
2017-04-06T00:09:36.478Z,72.41
2017-04-06T00:09:40.907Z,72.78
2017-04-06T00:09:45.222Z,72.12
2017-04-06T00:09:49.423Z,72.5
2017-04-06T00:09:53.851Z,72.41
2017-04-06T00:09:58.159Z,72.41
2017-04-06T00:10:02.552Z,72.12
2017-04-06T00:10:06.754Z,72.5
2017-04-06T00:10:10.962Z,72.41
2017-04-06T00:10:15.387Z,72.88
2017-04-06T00:10:19.698Z,72.5
2017-04-06T00:10:24.127Z,72.41
2017-04-06T00:10:28.564Z,72.12
2017-04-06T00:10:32.883Z,72.5
2017-04-06T00:10:37.323Z,72.12
2017-04-06T00:10:41.750Z,72.5
2017-04-06T00:10:46.193Z,72.12
2017-04-06T00:10:50.501Z,72.5
2017-04-06T00:10:54.811Z,72.5
2017-04-06T00:10:58.890Z,72.6
2017-04-06T00:11:03.225Z,72.6
2017-04-06T00:11:07.429Z,72.5
2017-04-06T00:11:11.745Z,72.6
2017-04-06T00:11:16.175Z,72.5
2017-04-06T00:11:20.609Z,72.31
2017-04-06T00:11:25.036Z,72.5
2017-04-06T00:11:29.468Z,72.6
2017-04-06T00:11:33.687Z,72.6
2017-04-06T00:11:37.998Z,72.5
2017-04-06T00:11:42.420Z,72.6
2017-04-06T00:11:46.845Z,72.97
2017-04-06T00:11:51.160Z,72.6
2017-04-06T00:11:55.583Z,72.6
2017-04-06T00:11:59.885Z,72.6
2017-04-06T00:12:04.294Z,72.6
2017-04-06T00:12:08.606Z,72.78
2017-04-06T00:12:13.026Z,72.6
2017-04-06T00:12:17.450Z,72.6
2017-04-06T00:12:21.881Z,72.69
2017-04-06T00:12:26.305Z,72.5
2017-04-06T00:12:30.609Z,72.41
2017-04-06T00:12:35.027Z,72.69
2017-04-06T00:12:39.444Z,72.78
2017-04-06T00:12:43.868Z,72.78
2017-04-06T00:12:48.178Z,72.5
2017-04-06T00:12:52.597Z,72.41
2017-04-06T00:12:56.907Z,72.69
2017-04-06T00:13:01.097Z,72.69
2017-04-06T00:13:05.527Z,72.78
2017-04-06T00:13:09.950Z,72.78
2017-04-06T00:13:14.371Z,72.78
2017-04-06T00:13:18.800Z,72.78
2017-04-06T00:13:22.995Z,72.88
2017-04-06T00:13:27.413Z,72.88
2017-04-06T00:13:31.719Z,72.88
2017-04-06T00:13:36.157Z,72.88
2017-04-06T00:13:40.350Z,72.6
2017-04-06T00:13:44.767Z,72.69
2017-04-06T00:13:49.221Z,72.78
2017-04-06T00:13:53.655Z,72.6
2017-04-06T00:13:58.084Z,72.97
2017-04-06T00:14:02.271Z,72.97
2017-04-06T00:14:06.704Z,72.78
2017-04-06T00:14:11.158Z,72.88
2017-04-06T00:14:15.351Z,72.97
2017-04-06T00:14:19.660Z,72.88
2017-04-06T00:14:24.094Z,72.88
2017-04-06T00:14:28.516Z,72.78
2017-04-06T00:14:32.713Z,72.69
2017-04-06T00:14:37.136Z,72.97
2017-04-06T00:14:41.597Z,72.78
2017-04-06T00:14:46.015Z,72.97
2017-04-06T00:14:50.439Z,72.78
2017-04-06T00:14:54.861Z,72.69
2017-04-06T00:14:59.294Z,72.88
2017-04-06T00:15:03.770Z,72.88
2017-04-06T00:15:08.076Z,72.78
2017-04-06T00:15:12.501Z,72.88
2017-04-06T00:15:16.937Z,72.78
2017-04-06T00:15:21.370Z,72.88
2017-04-06T00:15:25.794Z,72.97
2017-04-06T00:15:30.126Z,72.88
2017-04-06T00:15:34.571Z,72.69
2017-04-06T00:15:38.990Z,72.88
2017-04-06T00:15:43.303Z,72.97
2017-04-06T00:15:47.733Z,72.97
2017-04-06T00:15:52.155Z,72.78
2017-04-06T00:15:56.579Z,72.97
2017-04-06T00:16:01.011Z,72.97
2017-04-06T00:16:05.788Z,72.97
2017-04-06T00:16:10.211Z,72.6
2017-04-06T00:16:14.642Z,72.88
2017-04-06T00:16:18.951Z,72.88
2017-04-06T00:16:23.381Z,72.02
2017-04-06T00:16:27.810Z,72.88
2017-04-06T00:16:31.881Z,72.88
2017-04-06T00:16:36.310Z,72.69
2017-04-06T00:16:40.749Z,73.17
2017-04-06T00:16:45.202Z,72.88
2017-04-06T00:16:49.627Z,72.88
2017-04-06T00:16:54.059Z,73.07
2017-04-06T00:16:58.484Z,72.97
2017-04-06T00:17:02.817Z,72.88
2017-04-06T00:17:07.240Z,72.97
2017-04-06T00:17:11.667Z,72.69
2017-04-06T00:17:16.096Z,72.78
2017-04-06T00:17:20.555Z,72.97
2017-04-06T00:17:24.863Z,72.88
2017-04-06T00:17:29.176Z,72.97
2017-04-06T00:17:33.613Z,72.97
2017-04-06T00:17:38.040Z,72.97
2017-04-06T00:17:42.466Z,72.97
2017-04-06T00:17:46.885Z,72.97
2017-04-06T00:17:51.308Z,72.97
2017-04-06T00:17:55.730Z,72.78
2017-04-06T00:18:00.155Z,72.6
2017-04-06T00:18:04.886Z,72.97
2017-04-06T00:18:09.346Z,72.97
2017-04-06T00:18:13.765Z,72.69
2017-04-06T00:18:18.071Z,72.88
2017-04-06T00:18:22.501Z,72.88
2017-04-06T00:18:26.808Z,72.88
2017-04-06T00:18:31.116Z,72.78
2017-04-06T00:18:35.542Z,72.97
2017-04-06T00:18:39.997Z,72.97
2017-04-06T00:18:44.304Z,72.88
2017-04-06T00:18:48.730Z,72.97
2017-04-06T00:18:53.164Z,72.88
2017-04-06T00:18:57.468Z,72.88
2017-04-06T00:19:02.018Z,72.88
2017-04-06T00:19:06.330Z,72.97
2017-04-06T00:19:10.757Z,72.97
2017-04-06T00:19:15.179Z,72.88
2017-04-06T00:19:19.601Z,72.97
2017-04-06T00:19:24.029Z,72.88
2017-04-06T00:19:28.340Z,72.88
2017-04-06T00:19:32.766Z,72.97
2017-04-06T00:19:37.194Z,72.88
2017-04-06T00:19:41.614Z,72.97
2017-04-06T00:19:46.049Z,72.88
2017-04-06T00:19:50.359Z,72.69
2017-04-06T00:19:54.779Z,72.97
2017-04-06T00:19:59.090Z,72.97
2017-04-06T00:20:03.412Z,72.97
2017-04-06T00:20:07.740Z,72.88
2017-04-06T00:20:12.053Z,72.88
2017-04-06T00:20:16.485Z,72.94
2017-04-06T00:20:20.913Z,72.88
2017-04-06T00:20:25.337Z,72.97
2017-04-06T00:20:29.762Z,72.97
2017-04-06T00:20:34.194Z,72.88
2017-04-06T00:20:38.618Z,72.88
2017-04-06T00:20:43.043Z,72.69
2017-04-06T00:20:47.463Z,72.6
2017-04-06T00:20:51.899Z,72.78
2017-04-06T00:20:56.209Z,72.75
2017-04-06T00:21:00.513Z,72.78
2017-04-06T00:21:05.078Z,72.78
2017-04-06T00:21:09.510Z,72.69
2017-04-06T00:21:13.941Z,72.69
2017-04-06T00:21:18.368Z,72.88
2017-04-06T00:21:22.803Z,72.88
2017-04-06T00:21:27.113Z,72.6
2017-04-06T00:21:31.418Z,72.88
2017-04-06T00:21:35.842Z,72.6
2017-04-06T00:21:40.273Z,72.6
2017-04-06T00:21:44.346Z,72.78
2017-04-06T00:21:48.660Z,72.78
2017-04-06T00:21:53.087Z,72.75
2017-04-06T00:21:57.403Z,72.88
2017-04-06T00:22:01.772Z,73.13
2017-04-06T00:22:06.081Z,72.97
2017-04-06T00:22:10.506Z,72.97
2017-04-06T00:22:14.936Z,72.6
2017-04-06T00:22:19.360Z,72.94
2017-04-06T00:22:23.671Z,72.78
2017-04-06T00:22:28.100Z,72.97
2017-04-06T00:22:32.556Z,72.88
2017-04-06T00:22:36.859Z,72.88
2017-04-06T00:22:41.279Z,72.88
2017-04-06T00:22:45.591Z,73.07
2017-04-06T00:22:50.010Z,72.97
2017-04-06T00:22:54.427Z,72.78
2017-04-06T00:22:58.851Z,73.26
2017-04-06T00:23:03.631Z,73.17
2017-04-06T00:23:07.940Z,73.51
2017-04-06T00:23:12.357Z,73.26
2017-04-06T00:23:16.784Z,73.17
2017-04-06T00:23:21.208Z,73.45
2017-04-06T00:23:25.636Z,73.07
2017-04-06T00:23:29.972Z,73.13
2017-04-06T00:23:34.158Z,73.45
2017-04-06T00:23:38.578Z,73.17
2017-04-06T00:23:42.881Z,73.17
2017-04-06T00:23:47.219Z,73.07
2017-04-06T00:23:51.645Z,72.97
2017-04-06T00:23:56.069Z,73.36
2017-04-06T00:24:00.492Z,73.26
2017-04-06T00:24:04.977Z,73.13
2017-04-06T00:24:09.400Z,72.78
2017-04-06T00:24:13.818Z,73.26
2017-04-06T00:24:18.237Z,73.26
2017-04-06T00:24:22.550Z,73.26
2017-04-06T00:24:26.982Z,73.26
2017-04-06T00:24:31.291Z,73.07
2017-04-06T00:24:35.721Z,72.78
2017-04-06T00:24:40.145Z,72.88
2017-04-06T00:24:44.575Z,73.13
2017-04-06T00:24:48.879Z,73.07
2017-04-06T00:24:53.322Z,73.07
2017-04-06T00:24:57.623Z,73.26
2017-04-06T00:25:02.055Z,73.22
2017-04-06T00:25:06.245Z,73.07
2017-04-06T00:25:10.696Z,73.32
2017-04-06T00:25:15.121Z,73.36
2017-04-06T00:25:19.550Z,72.97
2017-04-06T00:25:23.624Z,73.07
2017-04-06T00:25:28.056Z,73.03
2017-04-06T00:25:32.362Z,73.03
2017-04-06T00:25:36.789Z,73.45
2017-04-06T00:25:41.214Z,73.22
2017-04-06T00:25:45.643Z,73.45
2017-04-06T00:25:50.069Z,73.45
2017-04-06T00:25:54.492Z,73.51
2017-04-06T00:25:58.915Z,73.36
2017-04-06T00:26:03.532Z,73.41
2017-04-06T00:26:07.958Z,73.41
2017-04-06T00:26:12.385Z,73.03
2017-04-06T00:26:16.813Z,73.03
2017-04-06T00:26:21.124Z,73.41
2017-04-06T00:26:25.567Z,73.55
2017-04-06T00:26:29.872Z,73.65
2017-04-06T00:26:34.294Z,73.51
2017-04-06T00:26:38.726Z,73.51
2017-04-06T00:26:43.164Z,73.55
2017-04-06T00:26:47.592Z,73.41
2017-04-06T00:26:52.017Z,73.41
2017-04-06T00:26:56.445Z,73.41
2017-04-06T00:27:00.748Z,73.45
2017-04-06T00:27:05.060Z,73.45
2017-04-06T00:27:09.367Z,73.65
2017-04-06T00:27:13.718Z,73.51
2017-04-06T00:27:18.137Z,73.51
2017-04-06T00:27:22.454Z,73.41
2017-04-06T00:27:26.886Z,73.41
2017-04-06T00:27:31.315Z,73.41
2017-04-06T00:27:35.623Z,73.51
2017-04-06T00:27:40.049Z,73.51
2017-04-06T00:27:44.363Z,73.41
2017-04-06T00:27:48.787Z,73.51
2017-04-06T00:27:53.207Z,73.41
2017-04-06T00:27:57.635Z,73.51
2017-04-06T00:28:02.254Z,73.41
2017-04-06T00:28:06.445Z,73.22
2017-04-06T00:28:10.871Z,73.41
2017-04-06T00:28:15.294Z,73.22
2017-04-06T00:28:19.723Z,73.41
2017-04-06T00:28:24.152Z,73.89
2017-04-06T00:28:28.573Z,73.22
2017-04-06T00:28:32.763Z,73.7
2017-04-06T00:28:37.186Z,73.51
2017-04-06T00:28:41.613Z,73.41
2017-04-06T00:28:46.034Z,73.51
2017-04-06T00:28:50.456Z,73.7
2017-04-06T00:28:54.877Z,73.89
2017-04-06T00:28:59.303Z,73.22
2017-04-06T00:29:03.495Z,73.41
2017-04-06T00:29:07.801Z,73.41
2017-04-06T00:29:12.230Z,73.22
2017-04-06T00:29:16.650Z,73.8
2017-04-06T00:29:21.074Z,73.32
2017-04-06T00:29:25.502Z,73.51
2017-04-06T00:29:29.925Z,73.13
2017-04-06T00:29:34.345Z,73.61
2017-04-06T00:29:38.774Z,73.41
2017-04-06T00:29:43.209Z,73.51
2017-04-06T00:29:47.637Z,73.51
2017-04-06T00:29:52.062Z,73.32
2017-04-06T00:29:56.487Z,73.41
2017-04-06T00:30:00.824Z,73.41
2017-04-06T00:30:05.403Z,73.32
2017-04-06T00:30:09.711Z,73.65
2017-04-06T00:30:14.141Z,73.45
2017-04-06T00:30:18.589Z,73.51
2017-04-06T00:30:22.900Z,73.22
2017-04-06T00:30:27.330Z,73.22
2017-04-06T00:30:31.767Z,73.65
2017-04-06T00:30:36.232Z,73.22
2017-04-06T00:30:40.417Z,73.32
2017-04-06T00:30:44.839Z,73.32
2017-04-06T00:30:49.273Z,73.13
2017-04-06T00:30:53.465Z,73.32
2017-04-06T00:30:57.768Z,73.51
2017-04-06T00:31:02.333Z,73.41
2017-04-06T00:31:06.770Z,73.41
2017-04-06T00:31:11.226Z,73.8
2017-04-06T00:31:15.649Z,73.61
2017-04-06T00:31:20.071Z,73.89
2017-04-06T00:31:24.502Z,73.89
2017-04-06T00:31:28.811Z,73.41
2017-04-06T00:31:33.234Z,73.61
2017-04-06T00:31:37.660Z,73.41
2017-04-06T00:31:41.979Z,73.41
2017-04-06T00:31:46.433Z,73.8
2017-04-06T00:31:50.735Z,73.8
2017-04-06T00:31:55.048Z,73.7
2017-04-06T00:31:59.479Z,73.8
2017-04-06T00:32:03.673Z,73.89
2017-04-06T00:32:08.104Z,73.99
2017-04-06T00:32:12.537Z,73.99
2017-04-06T00:32:16.965Z,73.89
2017-04-06T00:32:21.150Z,73.99
2017-04-06T00:32:25.580Z,73.89
2017-04-06T00:32:29.910Z,73.99
2017-04-06T00:32:34.332Z,73.89
2017-04-06T00:32:38.763Z,73.89
2017-04-06T00:32:43.537Z,74.08
2017-04-06T00:32:47.989Z,73.41
2017-04-06T00:32:52.407Z,73.89
2017-04-06T00:32:56.709Z,73.61
2017-04-06T00:33:01.132Z,73.89
2017-04-06T00:33:05.694Z,73.8
2017-04-06T00:33:09.884Z,73.89
2017-04-06T00:33:14.310Z,73.89
2017-04-06T00:33:18.738Z,74.08
2017-04-06T00:33:23.164Z,73.8
2017-04-06T00:33:27.592Z,74.08
2017-04-06T00:33:32.019Z,73.99
2017-04-06T00:33:36.446Z,73.89
2017-04-06T00:33:40.874Z,73.99
2017-04-06T00:33:45.291Z,73.8
2017-04-06T00:33:49.593Z,73.89
2017-04-06T00:33:53.905Z,73.89
2017-04-06T00:33:58.363Z,73.89
2017-04-06T00:34:02.671Z,73.89
2017-04-06T00:34:07.098Z,73.8
2017-04-06T00:34:11.287Z,74.18
2017-04-06T00:34:15.596Z,74.37
2017-04-06T00:34:20.016Z,73.7
2017-04-06T00:34:24.324Z,73.99
2017-04-06T00:34:28.749Z,73.7
2017-04-06T00:34:33.058Z,73.8
2017-04-06T00:34:37.476Z,73.7
2017-04-06T00:34:41.899Z,73.7
2017-04-06T00:34:46.224Z,73.89
2017-04-06T00:34:50.655Z,74.18
2017-04-06T00:34:54.845Z,74.27
2017-04-06T00:34:59.270Z,73.99
2017-04-06T00:35:03.578Z,74.27
2017-04-06T00:35:07.764Z,74.18
2017-04-06T00:35:12.188Z,74.27
2017-04-06T00:35:16.614Z,74.18
2017-04-06T00:35:21.035Z,74.27
2017-04-06T00:35:25.455Z,74.27
2017-04-06T00:35:29.876Z,74.37
2017-04-06T00:35:34.303Z,73.89
2017-04-06T00:35:38.730Z,74.37
2017-04-06T00:35:42.921Z,73.99
2017-04-06T00:35:47.340Z,74.08
2017-04-06T00:35:51.770Z,73.89
2017-04-06T00:35:56.103Z,74.27
2017-04-06T00:36:00.527Z,73.99
2017-04-06T00:36:04.836Z,73.99
2017-04-06T00:36:09.151Z,73.89
2017-04-06T00:36:13.581Z,74.18
2017-04-06T00:36:18.010Z,74.08
2017-04-06T00:36:22.317Z,74.18
2017-04-06T00:36:26.743Z,74.08
2017-04-06T00:36:31.048Z,74.08
2017-04-06T00:36:35.350Z,74.46
2017-04-06T00:36:39.656Z,74.08
2017-04-06T00:36:43.972Z,74.18
2017-04-06T00:36:48.163Z,74.08
2017-04-06T00:36:52.587Z,74.37
2017-04-06T00:36:57.016Z,74.18
2017-04-06T00:37:01.439Z,74.18
2017-04-06T00:37:05.868Z,74.18
2017-04-06T00:37:10.289Z,74.18
2017-04-06T00:37:14.708Z,74.46
2017-04-06T00:37:19.143Z,74.18
2017-04-06T00:37:23.575Z,74.18
2017-04-06T00:37:27.996Z,74.18
2017-04-06T00:37:32.418Z,74.27
2017-04-06T00:37:36.612Z,74.27
2017-04-06T00:37:40.923Z,74.27
2017-04-06T00:37:45.355Z,74.37
2017-04-06T00:37:49.661Z,74.65
2017-04-06T00:37:54.085Z,74.37
2017-04-06T00:37:58.541Z,74.56
2017-04-06T00:38:02.963Z,74.65
2017-04-06T00:38:07.271Z,74.56
2017-04-06T00:38:11.573Z,74.65
2017-04-06T00:38:16.036Z,74.18
2017-04-06T00:38:20.457Z,74.27
2017-04-06T00:38:24.881Z,74.27
2017-04-06T00:38:29.186Z,74.46
2017-04-06T00:38:33.611Z,74.18
2017-04-06T00:38:38.036Z,74.18
2017-04-06T00:38:42.457Z,74.18
2017-04-06T00:38:46.886Z,74.27
2017-04-06T00:38:51.315Z,74.27
2017-04-06T00:38:55.741Z,74.18
2017-04-06T00:39:00.165Z,74.18
2017-04-06T00:39:04.475Z,74.18
2017-04-06T00:39:08.902Z,74.18
2017-04-06T00:39:13.323Z,74.18
2017-04-06T00:39:17.508Z,74.27
2017-04-06T00:39:21.815Z,74.18
2017-04-06T00:39:26.239Z,74.37
2017-04-06T00:39:30.674Z,74.27
2017-04-06T00:39:35.096Z,74.27
2017-04-06T00:39:39.402Z,74.27
2017-04-06T00:39:43.836Z,74.27
2017-04-06T00:39:48.149Z,74.27
2017-04-06T00:39:52.570Z,74.37
2017-04-06T00:39:56.994Z,74.37
2017-04-06T00:40:01.423Z,74.37
2017-04-06T00:40:05.861Z,74.37
2017-04-06T00:40:10.169Z,73.99
2017-04-06T00:40:14.594Z,74.37
2017-04-06T00:40:19.023Z,74.37
2017-04-06T00:40:23.451Z,74.37
2017-04-06T00:40:27.882Z,74.18
2017-04-06T00:40:32.193Z,74.46
2017-04-06T00:40:36.623Z,74.27
2017-04-06T00:40:41.043Z,74.27
2017-04-06T00:40:45.354Z,74.27
2017-04-06T00:40:49.666Z,74.27
2017-04-06T00:40:54.087Z,74.27
2017-04-06T00:40:58.166Z,74.27
2017-04-06T00:41:02.355Z,74.18
2017-04-06T00:41:06.663Z,74.27
2017-04-06T00:41:11.087Z,74.08
2017-04-06T00:41:15.511Z,74.08
2017-04-06T00:41:19.965Z,74.75
2017-04-06T00:41:24.271Z,74.75
2017-04-06T00:41:28.698Z,74.84
2017-04-06T00:41:33.132Z,74.18
2017-04-06T00:41:37.563Z,74.46
2017-04-06T00:41:41.985Z,74.65
2017-04-06T00:41:46.291Z,74.75
2017-04-06T00:41:50.602Z,74.65
2017-04-06T00:41:55.070Z,74.65
2017-04-06T00:41:59.528Z,74.65
2017-04-06T00:42:04.136Z,74.65
2017-04-06T00:42:08.326Z,74.75
2017-04-06T00:42:12.755Z,74.56
2017-04-06T00:42:17.176Z,74.75
2017-04-06T00:42:21.602Z,74.56
2017-04-06T00:42:25.913Z,74.65
2017-04-06T00:42:30.338Z,74.65
2017-04-06T00:42:34.762Z,74.75
2017-04-06T00:42:39.067Z,74.65
2017-04-06T00:42:43.382Z,74.37
2017-04-06T00:42:47.810Z,74.75
2017-04-06T00:42:52.232Z,74.37
2017-04-06T00:42:56.539Z,74.37
2017-04-06T00:43:00.998Z,74.65
2017-04-06T00:43:05.359Z,74.37
2017-04-06T00:43:09.776Z,74.46
2017-04-06T00:43:14.206Z,74.56
2017-04-06T00:43:18.543Z,74.37
2017-04-06T00:43:22.846Z,74.56
2017-04-06T00:43:27.038Z,74.46
2017-04-06T00:43:31.460Z,74.46
2017-04-06T00:43:35.793Z,74.37
2017-04-06T00:43:40.218Z,74.56
2017-04-06T00:43:44.407Z,74.46
2017-04-06T00:43:48.826Z,74.56
2017-04-06T00:43:53.254Z,74.75
2017-04-06T00:43:57.677Z,75.13
2017-04-06T00:44:02.137Z,74.75
2017-04-06T00:44:06.441Z,75.13
2017-04-06T00:44:10.636Z,75.13
2017-04-06T00:44:15.061Z,75.04
2017-04-06T00:44:19.481Z,75.04
2017-04-06T00:44:23.676Z,75.13
2017-04-06T00:44:28.103Z,75.04
2017-04-06T00:44:32.525Z,75.13
2017-04-06T00:44:36.961Z,75.32
2017-04-06T00:44:41.298Z,75.23
2017-04-06T00:44:45.725Z,75.13
2017-04-06T00:44:50.145Z,75.13
2017-04-06T00:44:54.572Z,75.13
2017-04-06T00:44:58.999Z,75.23
2017-04-06T00:45:03.616Z,75.23
2017-04-06T00:45:07.925Z,74.94
2017-04-06T00:45:12.113Z,75.13
2017-04-06T00:45:16.540Z,75.23
2017-04-06T00:45:20.968Z,75.32
2017-04-06T00:45:25.397Z,75.32
2017-04-06T00:45:29.825Z,75.42
2017-04-06T00:45:34.261Z,74.94
2017-04-06T00:45:38.688Z,75.32
2017-04-06T00:45:42.880Z,75.04
2017-04-06T00:45:47.310Z,75.13
2017-04-06T00:45:51.744Z,75.23
2017-04-06T00:45:56.167Z,75.13
2017-04-06T00:46:00.236Z,75.13
2017-04-06T00:46:04.715Z,75.42
2017-04-06T00:46:09.028Z,74.94
2017-04-06T00:46:13.451Z,75.32
2017-04-06T00:46:17.872Z,75.32
2017-04-06T00:46:22.301Z,75.6
2017-04-06T00:46:26.732Z,75.6
2017-04-06T00:46:31.044Z,75.51
2017-04-06T00:46:35.471Z,75.51
2017-04-06T00:46:39.900Z,75.51
2017-04-06T00:46:44.233Z,75.42
2017-04-06T00:46:48.661Z,75.6
2017-04-06T00:46:53.095Z,75.6
2017-04-06T00:46:57.531Z,75.51
2017-04-06T00:47:01.835Z,75.6
2017-04-06T00:47:06.297Z,75.32
2017-04-06T00:47:10.606Z,75.32
2017-04-06T00:47:15.030Z,75.42
2017-04-06T00:47:19.452Z,75.23
2017-04-06T00:47:23.871Z,75.42
2017-04-06T00:47:28.295Z,75.42
2017-04-06T00:47:32.722Z,75.42
2017-04-06T00:47:37.181Z,75.42
2017-04-06T00:47:41.611Z,75.32
2017-04-06T00:47:45.972Z,75.42
2017-04-06T00:47:50.405Z,75.42
2017-04-06T00:47:54.830Z,75.23
2017-04-06T00:47:59.255Z,75.79
2017-04-06T00:48:03.775Z,75.32
2017-04-06T00:48:08.082Z,75.6
2017-04-06T00:48:12.505Z,75.32
2017-04-06T00:48:16.925Z,75.32
2017-04-06T00:48:21.348Z,75.51
2017-04-06T00:48:25.688Z,75.23
2017-04-06T00:48:29.994Z,75.32
2017-04-06T00:48:34.298Z,75.6
2017-04-06T00:48:38.729Z,75.32
2017-04-06T00:48:43.153Z,75.32
2017-04-06T00:48:47.580Z,75.32
2017-04-06T00:48:52.032Z,75.42
2017-04-06T00:48:56.454Z,75.79
2017-04-06T00:49:00.769Z,75.99
2017-04-06T00:49:05.060Z,75.89
2017-04-06T00:49:09.377Z,76.08
2017-04-06T00:49:13.841Z,75.89
2017-04-06T00:49:18.269Z,75.99
2017-04-06T00:49:22.691Z,75.99
2017-04-06T00:49:27.112Z,75.7
2017-04-06T00:49:31.303Z,75.7
2017-04-06T00:49:35.749Z,75.7
2017-04-06T00:49:40.170Z,75.89
2017-04-06T00:49:44.481Z,75.79
2017-04-06T00:49:48.908Z,75.79
2017-04-06T00:49:53.220Z,75.89
2017-04-06T00:49:57.652Z,75.79
2017-04-06T00:50:02.079Z,75.79
2017-04-06T00:50:06.513Z,75.6
2017-04-06T00:50:10.471Z,75.7
2017-04-06T00:50:14.779Z,75.7
2017-04-06T00:50:19.216Z,75.79
2017-04-06T00:50:23.402Z,76.08
2017-04-06T00:50:27.828Z,75.6
2017-04-06T00:50:32.254Z,75.79
2017-04-06T00:50:36.727Z,75.99
2017-04-06T00:50:41.153Z,76.08
2017-04-06T00:50:45.342Z,76.18
2017-04-06T00:50:49.773Z,75.7
2017-04-06T00:50:54.201Z,75.51
2017-04-06T00:50:58.624Z,75.89
2017-04-06T00:51:03.399Z,76.18
2017-04-06T00:51:07.749Z,75.89
2017-04-06T00:51:12.176Z,75.89
2017-04-06T00:51:16.480Z,75.99
2017-04-06T00:51:20.805Z,75.89
2017-04-06T00:51:25.231Z,75.6
2017-04-06T00:51:29.655Z,75.6
2017-04-06T00:51:34.079Z,76.08
2017-04-06T00:51:38.513Z,75.7
2017-04-06T00:51:42.823Z,75.99
2017-04-06T00:51:47.257Z,76.18
2017-04-06T00:51:51.692Z,75.7
2017-04-06T00:51:56.117Z,75.79
2017-04-06T00:52:00.542Z,75.79
2017-04-06T00:52:04.965Z,75.7
2017-04-06T00:52:09.400Z,75.6
2017-04-06T00:52:13.714Z,75.79
2017-04-06T00:52:18.137Z,75.79
2017-04-06T00:52:22.556Z,75.89
2017-04-06T00:52:26.978Z,75.6
2017-04-06T00:52:31.418Z,75.7
2017-04-06T00:52:35.871Z,75.89
2017-04-06T00:52:40.296Z,76.08
2017-04-06T00:52:44.715Z,75.79
2017-04-06T00:52:49.145Z,75.89
2017-04-06T00:52:53.568Z,76.37
2017-04-06T00:52:57.872Z,76.27
2017-04-06T00:53:02.548Z,76.46
2017-04-06T00:53:06.858Z,76.08
2017-04-06T00:53:11.280Z,76.27
2017-04-06T00:53:15.701Z,76.56
2017-04-06T00:53:20.124Z,76.75
2017-04-06T00:53:24.439Z,76.56
2017-04-06T00:53:28.867Z,76.75
2017-04-06T00:53:33.286Z,76.65
2017-04-06T00:53:37.594Z,76.56
2017-04-06T00:53:42.018Z,76.75
2017-04-06T00:53:46.444Z,76.65
2017-04-06T00:53:50.754Z,76.65
2017-04-06T00:53:55.174Z,76.75
2017-04-06T00:53:59.601Z,76.56
2017-04-06T00:54:04.406Z,76.56
2017-04-06T00:54:08.842Z,76.37
2017-04-06T00:54:13.266Z,76.56
2017-04-06T00:54:17.688Z,76.75
2017-04-06T00:54:22.121Z,76.65
2017-04-06T00:54:26.546Z,76.65
2017-04-06T00:54:30.974Z,76.75
2017-04-06T00:54:35.407Z,76.84
2017-04-06T00:54:39.727Z,76.75
2017-04-06T00:54:44.151Z,77.42
2017-04-06T00:54:48.576Z,77.03
2017-04-06T00:54:53.000Z,77.13
2017-04-06T00:54:57.431Z,77.32
2017-04-06T00:55:01.857Z,77.13
2017-04-06T00:55:06.285Z,77.42
2017-04-06T00:55:10.714Z,77.13
2017-04-06T00:55:15.026Z,77.13
2017-04-06T00:55:19.455Z,77.42
2017-04-06T00:55:23.872Z,77.13
2017-04-06T00:55:28.294Z,76.94
2017-04-06T00:55:32.617Z,77.13
2017-04-06T00:55:36.927Z,77.22
2017-04-06T00:55:41.238Z,77.13
2017-04-06T00:55:45.704Z,77.13
2017-04-06T00:55:50.013Z,77.13
2017-04-06T00:55:54.438Z,76.94
2017-04-06T00:55:58.866Z,77.22
2017-04-06T00:56:03.338Z,77.13
2017-04-06T00:56:07.678Z,77.13
2017-04-06T00:56:11.983Z,77.03
2017-04-06T00:56:16.415Z,76.75
2017-04-06T00:56:20.841Z,76.75
2017-04-06T00:56:25.268Z,76.37
2017-04-06T00:56:29.687Z,76.75
2017-04-06T00:56:33.890Z,76.46
2017-04-06T00:56:38.325Z,76.75
2017-04-06T00:56:42.748Z,77.03
2017-04-06T00:56:46.933Z,76.46